sensor_id;sensor_type;location;lat;lon;timestamp;P1;durP1;ratioP1;P2;durP2;ratioP2
3811;SDS011;1921;49.368;11.068;2023-05-07T00:01:58;50.37;;;45.50;;
3811;SDS011;1921;49.368;11.068;2023-05-07T00:04:23;51.40;;;46.30;;
3811;SDS011;1921;49.368;11.068;2023-05-07T00:06:49;58.20;;;47.57;;
3811;SDS011;1921;49.368;11.068;2023-05-07T00:09:16;51.17;;;46.13;;
3811;SDS011;1921;49.368;11.068;2023-05-07T00:11:41;50.87;;;45.90;;
3811;SDS011;1921;49.368;11.068;2023-05-07T00:14:07;51.20;;;46.20;;
3811;SDS011;1921;49.368;11.068;2023-05-07T00:16:33;50.57;;;45.57;;
3811;SDS011;1921;49.368;11.068;2023-05-07T00:18:58;51.33;;;46.30;;
3811;SDS011;1921;49.368;11.068;2023-05-07T00:21:25;52.00;;;46.63;;
3811;SDS011;1921;49.368;11.068;2023-05-07T00:23:53;52.53;;;47.23;;
3811;SDS011;1921;49.368;11.068;2023-05-07T00:26:19;52.10;;;46.90;;
3811;SDS011;1921;49.368;11.068;2023-05-07T00:28:45;50.97;;;45.97;;
3811;SDS011;1921;49.368;11.068;2023-05-07T00:31:11;50.92;;;45.92;;
3811;SDS011;1921;49.368;11.068;2023-05-07T00:33:37;51.47;;;46.30;;
3811;SDS011;1921;49.368;11.068;2023-05-07T00:36:03;52.80;;;47.33;;
3811;SDS011;1921;49.368;11.068;2023-05-07T00:38:29;51.87;;;46.30;;
3811;SDS011;1921;49.368;11.068;2023-05-07T00:40:55;50.60;;;45.50;;
3811;SDS011;1921;49.368;11.068;2023-05-07T00:43:21;51.13;;;46.00;;
3811;SDS011;1921;49.368;11.068;2023-05-07T00:45:46;51.03;;;45.83;;
3811;SDS011;1921;49.368;11.068;2023-05-07T00:48:13;51.50;;;46.40;;
3811;SDS011;1921;49.368;11.068;2023-05-07T00:50:39;51.47;;;46.37;;
3811;SDS011;1921;49.368;11.068;2023-05-07T00:53:04;51.70;;;46.50;;
3811;SDS011;1921;49.368;11.068;2023-05-07T00:55:31;51.40;;;46.30;;
3811;SDS011;1921;49.368;11.068;2023-05-07T00:57:57;53.78;;;47.97;;
3811;SDS011;1921;49.368;11.068;2023-05-07T01:00:23;51.77;;;46.67;;
3811;SDS011;1921;49.368;11.068;2023-05-07T01:02:50;52.07;;;46.60;;
3811;SDS011;1921;49.368;11.068;2023-05-07T01:05:16;51.03;;;45.93;;
3811;SDS011;1921;49.368;11.068;2023-05-07T01:07:45;51.65;;;46.55;;
3811;SDS011;1921;49.368;11.068;2023-05-07T01:10:11;51.15;;;46.08;;
3811;SDS011;1921;49.368;11.068;2023-05-07T01:12:38;51.95;;;46.55;;
3811;SDS011;1921;49.368;11.068;2023-05-07T01:15:05;52.73;;;47.10;;
3811;SDS011;1921;49.368;11.068;2023-05-07T01:17:36;50.97;;;45.90;;
3811;SDS011;1921;49.368;11.068;2023-05-07T01:20:06;51.83;;;46.30;;
3811;SDS011;1921;49.368;11.068;2023-05-07T01:22:37;51.80;;;46.60;;
3811;SDS011;1921;49.368;11.068;2023-05-07T01:25:04;51.30;;;46.20;;
3811;SDS011;1921;49.368;11.068;2023-05-07T01:27:32;51.50;;;46.30;;
3811;SDS011;1921;49.368;11.068;2023-05-07T01:30:02;51.05;;;46.05;;
3811;SDS011;1921;49.368;11.068;2023-05-07T01:35:20;51.93;;;46.73;;
3811;SDS011;1921;49.368;11.068;2023-05-07T01:38:05;51.50;;;46.30;;
3811;SDS011;1921;49.368;11.068;2023-05-07T01:40:32;52.00;;;46.63;;
3811;SDS011;1921;49.368;11.068;2023-05-07T01:42:59;51.67;;;46.47;;
3811;SDS011;1921;49.368;11.068;2023-05-07T01:45:26;51.83;;;46.70;;
3811;SDS011;1921;49.368;11.068;2023-05-07T01:47:52;51.27;;;46.07;;
3811;SDS011;1921;49.368;11.068;2023-05-07T01:50:19;51.33;;;46.27;;
3811;SDS011;1921;49.368;11.068;2023-05-07T01:52:45;51.73;;;46.47;;
3811;SDS011;1921;49.368;11.068;2023-05-07T01:55:12;51.10;;;46.10;;
3811;SDS011;1921;49.368;11.068;2023-05-07T01:57:38;51.37;;;46.27;;
3811;SDS011;1921;49.368;11.068;2023-05-07T02:00:04;52.03;;;46.63;;
3811;SDS011;1921;49.368;11.068;2023-05-07T02:02:30;51.13;;;46.13;;
3811;SDS011;1921;49.368;11.068;2023-05-07T02:04:56;50.73;;;45.80;;
3811;SDS011;1921;49.368;11.068;2023-05-07T02:07:22;50.87;;;45.87;;
3811;SDS011;1921;49.368;11.068;2023-05-07T02:09:47;50.80;;;45.70;;
3811;SDS011;1921;49.368;11.068;2023-05-07T02:12:13;51.47;;;46.37;;
3811;SDS011;1921;49.368;11.068;2023-05-07T02:14:39;50.67;;;45.70;;
3811;SDS011;1921;49.368;11.068;2023-05-07T02:17:05;50.93;;;45.97;;
3811;SDS011;1921;49.368;11.068;2023-05-07T02:19:30;51.80;;;46.60;;
3811;SDS011;1921;49.368;11.068;2023-05-07T02:21:56;50.70;;;45.60;;
3811;SDS011;1921;49.368;11.068;2023-05-07T02:24:22;51.37;;;46.27;;
3811;SDS011;1921;49.368;11.068;2023-05-07T02:26:47;52.83;;;47.43;;
3811;SDS011;1921;49.368;11.068;2023-05-07T02:29:13;52.57;;;47.37;;
3811;SDS011;1921;49.368;11.068;2023-05-07T02:31:39;54.57;;;48.67;;
3811;SDS011;1921;49.368;11.068;2023-05-07T02:34:05;53.53;;;48.13;;
3811;SDS011;1921;49.368;11.068;2023-05-07T02:36:31;54.27;;;48.50;;
3811;SDS011;1921;49.368;11.068;2023-05-07T02:38:56;54.90;;;48.67;;
3811;SDS011;1921;49.368;11.068;2023-05-07T02:41:22;51.47;;;46.47;;
3811;SDS011;1921;49.368;11.068;2023-05-07T02:43:48;62.73;;;48.47;;
3811;SDS011;1921;49.368;11.068;2023-05-07T02:46:14;52.27;;;47.07;;
3811;SDS011;1921;49.368;11.068;2023-05-07T02:48:40;52.30;;;47.10;;
3811;SDS011;1921;49.368;11.068;2023-05-07T02:51:06;51.23;;;46.33;;
3811;SDS011;1921;49.368;11.068;2023-05-07T02:53:32;50.53;;;45.70;;
3811;SDS011;1921;49.368;11.068;2023-05-07T02:55:58;49.60;;;44.80;;
3811;SDS011;1921;49.368;11.068;2023-05-07T02:58:27;48.87;;;44.27;;
3811;SDS011;1921;49.368;11.068;2023-05-07T03:00:53;48.87;;;44.27;;
3811;SDS011;1921;49.368;11.068;2023-05-07T03:03:22;48.90;;;44.30;;
3811;SDS011;1921;49.368;11.068;2023-05-07T03:05:48;48.60;;;44.00;;
3811;SDS011;1921;49.368;11.068;2023-05-07T03:08:13;48.60;;;44.00;;
3811;SDS011;1921;49.368;11.068;2023-05-07T03:10:39;48.60;;;44.00;;
3811;SDS011;1921;49.368;11.068;2023-05-07T03:13:05;48.78;;;44.17;;
3811;SDS011;1921;49.368;11.068;2023-05-07T03:15:31;49.20;;;44.60;;
3811;SDS011;1921;49.368;11.068;2023-05-07T03:17:56;48.57;;;44.03;;
3811;SDS011;1921;49.368;11.068;2023-05-07T03:20:22;48.60;;;44.10;;
3811;SDS011;1921;49.368;11.068;2023-05-07T03:22:48;48.53;;;43.92;;
3811;SDS011;1921;49.368;11.068;2023-05-07T03:25:13;48.73;;;44.13;;
3811;SDS011;1921;49.368;11.068;2023-05-07T03:27:39;49.17;;;44.47;;
3811;SDS011;1921;49.368;11.068;2023-05-07T03:30:07;48.40;;;43.85;;
3811;SDS011;1921;49.368;11.068;2023-05-07T03:32:33;48.47;;;43.92;;
3811;SDS011;1921;49.368;11.068;2023-05-07T03:35:00;48.70;;;44.10;;
3811;SDS011;1921;49.368;11.068;2023-05-07T03:37:26;48.72;;;44.15;;
3811;SDS011;1921;49.368;11.068;2023-05-07T03:39:52;48.73;;;44.13;;
3811;SDS011;1921;49.368;11.068;2023-05-07T03:42:17;49.23;;;44.53;;
3811;SDS011;1921;49.368;11.068;2023-05-07T03:44:43;50.23;;;45.43;;
3811;SDS011;1921;49.368;11.068;2023-05-07T03:47:09;49.20;;;44.50;;
3811;SDS011;1921;49.368;11.068;2023-05-07T03:49:35;48.83;;;44.23;;
3811;SDS011;1921;49.368;11.068;2023-05-07T03:52:01;48.70;;;44.10;;
3811;SDS011;1921;49.368;11.068;2023-05-07T03:54:27;48.87;;;44.20;;
3811;SDS011;1921;49.368;11.068;2023-05-07T03:56:53;49.07;;;44.47;;
3811;SDS011;1921;49.368;11.068;2023-05-07T03:59:18;48.73;;;44.13;;
3811;SDS011;1921;49.368;11.068;2023-05-07T04:01:44;48.73;;;44.13;;
3811;SDS011;1921;49.368;11.068;2023-05-07T04:04:10;48.70;;;44.10;;
3811;SDS011;1921;49.368;11.068;2023-05-07T04:06:36;48.90;;;44.20;;
3811;SDS011;1921;49.368;11.068;2023-05-07T04:09:02;50.40;;;45.58;;
3811;SDS011;1921;49.368;11.068;2023-05-07T04:11:28;49.23;;;44.43;;
3811;SDS011;1921;49.368;11.068;2023-05-07T04:13:53;49.27;;;44.57;;
3811;SDS011;1921;49.368;11.068;2023-05-07T04:16:19;50.87;;;45.47;;
3811;SDS011;1921;49.368;11.068;2023-05-07T04:18:45;49.37;;;44.63;;
3811;SDS011;1921;49.368;11.068;2023-05-07T04:21:14;49.07;;;44.37;;
3811;SDS011;1921;49.368;11.068;2023-05-07T04:23:45;49.10;;;44.40;;
3811;SDS011;1921;49.368;11.068;2023-05-07T04:26:12;49.57;;;44.77;;
3811;SDS011;1921;49.368;11.068;2023-05-07T04:28:38;49.80;;;45.00;;
3811;SDS011;1921;49.368;11.068;2023-05-07T04:31:05;49.40;;;44.60;;
3811;SDS011;1921;49.368;11.068;2023-05-07T04:33:31;49.97;;;45.10;;
3811;SDS011;1921;49.368;11.068;2023-05-07T04:35:57;51.00;;;45.90;;
3811;SDS011;1921;49.368;11.068;2023-05-07T04:38:28;49.53;;;44.73;;
3811;SDS011;1921;49.368;11.068;2023-05-07T04:40:57;49.77;;;44.87;;
3811;SDS011;1921;49.368;11.068;2023-05-07T04:43:30;49.67;;;44.77;;
3811;SDS011;1921;49.368;11.068;2023-05-07T04:45:56;49.87;;;44.97;;
3811;SDS011;1921;49.368;11.068;2023-05-07T04:48:21;50.17;;;45.27;;
3811;SDS011;1921;49.368;11.068;2023-05-07T04:50:47;50.73;;;45.70;;
3811;SDS011;1921;49.368;11.068;2023-05-07T04:53:14;50.20;;;45.20;;
3811;SDS011;1921;49.368;11.068;2023-05-07T04:55:41;50.13;;;45.13;;
3811;SDS011;1921;49.368;11.068;2023-05-07T04:58:07;49.93;;;44.93;;
3811;SDS011;1921;49.368;11.068;2023-05-07T05:00:33;50.07;;;45.10;;
3811;SDS011;1921;49.368;11.068;2023-05-07T05:02:59;50.70;;;45.60;;
3811;SDS011;1921;49.368;11.068;2023-05-07T05:05:25;50.97;;;45.87;;
3811;SDS011;1921;49.368;11.068;2023-05-07T05:07:50;50.63;;;45.53;;
3811;SDS011;1921;49.368;11.068;2023-05-07T05:10:17;50.43;;;45.37;;
3811;SDS011;1921;49.368;11.068;2023-05-07T05:12:43;52.27;;;46.97;;
3811;SDS011;1921;49.368;11.068;2023-05-07T05:15:10;50.27;;;45.20;;
3811;SDS011;1921;49.368;11.068;2023-05-07T05:17:37;55.83;;;46.20;;
3811;SDS011;1921;49.368;11.068;2023-05-07T05:20:03;50.80;;;45.60;;
3811;SDS011;1921;49.368;11.068;2023-05-07T05:22:30;50.90;;;45.70;;
3811;SDS011;1921;49.368;11.068;2023-05-07T05:24:57;51.13;;;45.83;;
3811;SDS011;1921;49.368;11.068;2023-05-07T05:27:22;51.30;;;46.00;;
3811;SDS011;1921;49.368;11.068;2023-05-07T05:29:48;51.38;;;46.05;;
3811;SDS011;1921;49.368;11.068;2023-05-07T05:32:14;51.30;;;46.00;;
3811;SDS011;1921;49.368;11.068;2023-05-07T05:34:40;51.47;;;46.13;;
3811;SDS011;1921;49.368;11.068;2023-05-07T05:37:06;51.30;;;46.00;;
3811;SDS011;1921;49.368;11.068;2023-05-07T05:39:31;51.83;;;46.43;;
3811;SDS011;1921;49.368;11.068;2023-05-07T05:41:58;52.00;;;46.60;;
3811;SDS011;1921;49.368;11.068;2023-05-07T05:44:24;51.45;;;46.15;;
3811;SDS011;1921;49.368;11.068;2023-05-07T05:46:50;51.57;;;46.20;;
3811;SDS011;1921;49.368;11.068;2023-05-07T05:49:16;51.40;;;46.10;;
3811;SDS011;1921;49.368;11.068;2023-05-07T05:51:42;51.37;;;46.07;;
3811;SDS011;1921;49.368;11.068;2023-05-07T05:54:08;51.60;;;46.30;;
3811;SDS011;1921;49.368;11.068;2023-05-07T05:56:34;51.77;;;46.37;;
3811;SDS011;1921;49.368;11.068;2023-05-07T05:59:00;51.53;;;46.23;;
3811;SDS011;1921;49.368;11.068;2023-05-07T06:01:25;51.88;;;46.47;;
3811;SDS011;1921;49.368;11.068;2023-05-07T06:03:51;51.53;;;46.17;;
3811;SDS011;1921;49.368;11.068;2023-05-07T06:06:17;51.67;;;46.27;;
3811;SDS011;1921;49.368;11.068;2023-05-07T06:08:43;51.87;;;46.47;;
3811;SDS011;1921;49.368;11.068;2023-05-07T06:11:08;52.20;;;46.70;;
3811;SDS011;1921;49.368;11.068;2023-05-07T06:13:34;52.00;;;46.50;;
3811;SDS011;1921;49.368;11.068;2023-05-07T06:16:00;52.20;;;46.70;;
3811;SDS011;1921;49.368;11.068;2023-05-07T06:18:26;52.30;;;46.80;;
3811;SDS011;1921;49.368;11.068;2023-05-07T06:20:51;51.73;;;46.33;;
3811;SDS011;1921;49.368;11.068;2023-05-07T06:23:18;52.30;;;46.80;;
3811;SDS011;1921;49.368;11.068;2023-05-07T06:25:50;52.60;;;47.00;;
3811;SDS011;1921;49.368;11.068;2023-05-07T06:28:16;54.27;;;48.37;;
3811;SDS011;1921;49.368;11.068;2023-05-07T06:30:42;53.20;;;47.60;;
3811;SDS011;1921;49.368;11.068;2023-05-07T06:33:08;53.30;;;47.67;;
3811;SDS011;1921;49.368;11.068;2023-05-07T06:35:33;54.60;;;48.60;;
3811;SDS011;1921;49.368;11.068;2023-05-07T06:37:59;53.03;;;47.43;;
3811;SDS011;1921;49.368;11.068;2023-05-07T06:40:25;52.97;;;47.37;;
3811;SDS011;1921;49.368;11.068;2023-05-07T06:42:51;52.63;;;47.03;;
3811;SDS011;1921;49.368;11.068;2023-05-07T06:45:17;53.00;;;47.40;;
3811;SDS011;1921;49.368;11.068;2023-05-07T06:47:44;53.93;;;48.10;;
3811;SDS011;1921;49.368;11.068;2023-05-07T06:50:10;53.00;;;47.30;;
3811;SDS011;1921;49.368;11.068;2023-05-07T06:52:36;53.00;;;47.30;;
3811;SDS011;1921;49.368;11.068;2023-05-07T06:55:02;52.87;;;47.17;;
3811;SDS011;1921;49.368;11.068;2023-05-07T06:57:28;54.00;;;48.10;;
3811;SDS011;1921;49.368;11.068;2023-05-07T06:59:54;53.60;;;47.80;;
3811;SDS011;1921;49.368;11.068;2023-05-07T07:02:19;53.97;;;48.00;;
3811;SDS011;1921;49.368;11.068;2023-05-07T07:04:45;55.27;;;48.47;;
3811;SDS011;1921;49.368;11.068;2023-05-07T07:07:11;54.50;;;48.53;;
3811;SDS011;1921;49.368;11.068;2023-05-07T07:09:36;54.03;;;48.10;;
3811;SDS011;1921;49.368;11.068;2023-05-07T07:12:02;54.17;;;48.20;;
3811;SDS011;1921;49.368;11.068;2023-05-07T07:14:28;54.47;;;48.40;;
3811;SDS011;1921;49.368;11.068;2023-05-07T07:16:54;53.93;;;48.03;;
3811;SDS011;1921;49.368;11.068;2023-05-07T07:19:20;54.90;;;48.88;;
3811;SDS011;1921;49.368;11.068;2023-05-07T07:21:46;56.07;;;49.27;;
3811;SDS011;1921;49.368;11.068;2023-05-07T07:24:12;55.40;;;48.70;;
3811;SDS011;1921;49.368;11.068;2023-05-07T07:26:44;55.00;;;48.77;;
3811;SDS011;1921;49.368;11.068;2023-05-07T07:29:09;55.83;;;49.07;;
3811;SDS011;1921;49.368;11.068;2023-05-07T07:31:35;54.57;;;48.57;;
3811;SDS011;1921;49.368;11.068;2023-05-07T07:34:01;55.17;;;48.63;;
3811;SDS011;1921;49.368;11.068;2023-05-07T07:36:27;55.07;;;48.93;;
3811;SDS011;1921;49.368;11.068;2023-05-07T07:38:53;54.77;;;48.67;;
3811;SDS011;1921;49.368;11.068;2023-05-07T07:41:19;55.00;;;48.97;;
3811;SDS011;1921;49.368;11.068;2023-05-07T07:43:45;54.60;;;48.60;;
3811;SDS011;1921;49.368;11.068;2023-05-07T07:46:11;59.50;;;49.47;;
3811;SDS011;1921;49.368;11.068;2023-05-07T07:48:37;54.93;;;48.90;;
3811;SDS011;1921;49.368;11.068;2023-05-07T07:51:03;54.80;;;48.53;;
3811;SDS011;1921;49.368;11.068;2023-05-07T07:53:29;56.40;;;48.77;;
3811;SDS011;1921;49.368;11.068;2023-05-07T07:55:55;55.43;;;48.83;;
3811;SDS011;1921;49.368;11.068;2023-05-07T07:58:21;55.80;;;49.40;;
3811;SDS011;1921;49.368;11.068;2023-05-07T08:00:47;54.80;;;48.80;;
3811;SDS011;1921;49.368;11.068;2023-05-07T08:03:13;56.60;;;49.90;;
3811;SDS011;1921;49.368;11.068;2023-05-07T08:05:41;56.73;;;49.27;;
3811;SDS011;1921;49.368;11.068;2023-05-07T08:08:07;54.20;;;48.13;;
3811;SDS011;1921;49.368;11.068;2023-05-07T08:10:33;54.95;;;48.78;;
3811;SDS011;1921;49.368;11.068;2023-05-07T08:12:59;55.10;;;48.80;;
3811;SDS011;1921;49.368;11.068;2023-05-07T08:15:25;56.40;;;49.05;;
3811;SDS011;1921;49.368;11.068;2023-05-07T08:17:51;58.07;;;50.10;;
3811;SDS011;1921;49.368;11.068;2023-05-07T08:20:17;56.30;;;48.97;;
3811;SDS011;1921;49.368;11.068;2023-05-07T08:22:43;57.60;;;49.60;;
3811;SDS011;1921;49.368;11.068;2023-05-07T08:25:08;57.30;;;49.30;;
3811;SDS011;1921;49.368;11.068;2023-05-07T08:27:34;58.53;;;50.00;;
3811;SDS011;1921;49.368;11.068;2023-05-07T08:30:00;57.13;;;49.53;;
3811;SDS011;1921;49.368;11.068;2023-05-07T08:32:26;57.40;;;50.00;;
3811;SDS011;1921;49.368;11.068;2023-05-07T08:34:52;59.45;;;50.28;;
3811;SDS011;1921;49.368;11.068;2023-05-07T08:37:18;57.40;;;49.60;;
3811;SDS011;1921;49.368;11.068;2023-05-07T08:39:44;56.80;;;49.30;;
3811;SDS011;1921;49.368;11.068;2023-05-07T08:42:09;58.20;;;50.37;;
3811;SDS011;1921;49.368;11.068;2023-05-07T08:44:38;58.38;;;50.20;;
3811;SDS011;1921;49.368;11.068;2023-05-07T08:47:06;60.60;;;50.57;;
3811;SDS011;1921;49.368;11.068;2023-05-07T08:49:33;59.47;;;50.00;;
3811;SDS011;1921;49.368;11.068;2023-05-07T08:51:59;61.20;;;50.97;;
3811;SDS011;1921;49.368;11.068;2023-05-07T08:54:26;61.10;;;51.03;;
3811;SDS011;1921;49.368;11.068;2023-05-07T08:56:54;60.90;;;50.60;;
3811;SDS011;1921;49.368;11.068;2023-05-07T08:59:20;60.65;;;50.78;;
3811;SDS011;1921;49.368;11.068;2023-05-07T09:01:45;62.57;;;51.20;;
3811;SDS011;1921;49.368;11.068;2023-05-07T09:04:11;60.33;;;50.70;;
3811;SDS011;1921;49.368;11.068;2023-05-07T09:06:37;59.90;;;50.57;;
3811;SDS011;1921;49.368;11.068;2023-05-07T09:09:06;60.30;;;50.87;;
3811;SDS011;1921;49.368;11.068;2023-05-07T09:11:32;61.40;;;51.63;;
3811;SDS011;1921;49.368;11.068;2023-05-07T09:13:58;60.10;;;50.70;;
3811;SDS011;1921;49.368;11.068;2023-05-07T09:16:28;60.07;;;50.70;;
3811;SDS011;1921;49.368;11.068;2023-05-07T09:18:57;61.60;;;51.07;;
3811;SDS011;1921;49.368;11.068;2023-05-07T09:21:25;63.03;;;51.97;;
3811;SDS011;1921;49.368;11.068;2023-05-07T09:23:52;61.80;;;51.67;;
3811;SDS011;1921;49.368;11.068;2023-05-07T09:26:23;61.30;;;51.50;;
3811;SDS011;1921;49.368;11.068;2023-05-07T09:28:50;60.13;;;51.10;;
3811;SDS011;1921;49.368;11.068;2023-05-07T09:31:16;59.50;;;50.60;;
3811;SDS011;1921;49.368;11.068;2023-05-07T09:33:43;60.17;;;51.10;;
3811;SDS011;1921;49.368;11.068;2023-05-07T09:36:09;61.90;;;51.60;;
3811;SDS011;1921;49.368;11.068;2023-05-07T09:38:35;61.10;;;51.10;;
3811;SDS011;1921;49.368;11.068;2023-05-07T09:43:37;61.87;;;51.73;;
3811;SDS011;1921;49.368;11.068;2023-05-07T09:46:06;60.90;;;50.90;;
3811;SDS011;1921;49.368;11.068;2023-05-07T09:48:40;61.90;;;51.50;;
3811;SDS011;1921;49.368;11.068;2023-05-07T09:53:54;62.50;;;51.97;;
3811;SDS011;1921;49.368;11.068;2023-05-07T09:56:20;62.60;;;51.83;;
3811;SDS011;1921;49.368;11.068;2023-05-07T09:58:47;61.80;;;51.47;;
3811;SDS011;1921;49.368;11.068;2023-05-07T10:01:14;61.40;;;51.40;;
3811;SDS011;1921;49.368;11.068;2023-05-07T10:03:44;62.73;;;51.83;;
3811;SDS011;1921;49.368;11.068;2023-05-07T10:06:11;62.37;;;51.67;;
3811;SDS011;1921;49.368;11.068;2023-05-07T10:08:38;62.30;;;51.50;;
3811;SDS011;1921;49.368;11.068;2023-05-07T10:11:04;62.70;;;52.40;;
3811;SDS011;1921;49.368;11.068;2023-05-07T10:13:31;62.00;;;51.67;;
3811;SDS011;1921;49.368;11.068;2023-05-07T10:16:02;64.17;;;51.83;;
3811;SDS011;1921;49.368;11.068;2023-05-07T10:18:30;61.40;;;51.47;;
3811;SDS011;1921;49.368;11.068;2023-05-07T10:21:07;62.63;;;51.93;;
3811;SDS011;1921;49.368;11.068;2023-05-07T10:23:44;62.70;;;52.07;;
3811;SDS011;1921;49.368;11.068;2023-05-07T10:26:14;62.27;;;51.80;;
3811;SDS011;1921;49.368;11.068;2023-05-07T10:28:43;62.17;;;51.77;;
3811;SDS011;1921;49.368;11.068;2023-05-07T10:31:15;63.17;;;51.90;;
3811;SDS011;1921;49.368;11.068;2023-05-07T10:33:53;62.50;;;52.33;;
3811;SDS011;1921;49.368;11.068;2023-05-07T10:36:21;61.80;;;51.53;;
3811;SDS011;1921;49.368;11.068;2023-05-07T10:38:47;63.70;;;52.10;;
3811;SDS011;1921;49.368;11.068;2023-05-07T10:41:13;61.97;;;51.63;;
3811;SDS011;1921;49.368;11.068;2023-05-07T10:43:44;62.47;;;51.93;;
3811;SDS011;1921;49.368;11.068;2023-05-07T10:46:20;63.60;;;52.20;;
3811;SDS011;1921;49.368;11.068;2023-05-07T10:51:29;61.87;;;51.83;;
3811;SDS011;1921;49.368;11.068;2023-05-07T10:56:35;63.47;;;51.60;;
3811;SDS011;1921;49.368;11.068;2023-05-07T11:04:29;61.80;;;51.50;;
3811;SDS011;1921;49.368;11.068;2023-05-07T11:15:02;61.13;;;51.30;;
3811;SDS011;1921;49.368;11.068;2023-05-07T11:17:30;60.53;;;51.00;;
3811;SDS011;1921;49.368;11.068;2023-05-07T11:19:57;61.20;;;51.60;;
3811;SDS011;1921;49.368;11.068;2023-05-07T11:25:04;60.67;;;51.03;;
3811;SDS011;1921;49.368;11.068;2023-05-07T11:27:31;61.57;;;51.53;;
3811;SDS011;1921;49.368;11.068;2023-05-07T11:29:58;61.37;;;51.27;;
3811;SDS011;1921;49.368;11.068;2023-05-07T11:32:29;62.27;;;51.57;;
3811;SDS011;1921;49.368;11.068;2023-05-07T11:34:57;62.37;;;52.00;;
3811;SDS011;1921;49.368;11.068;2023-05-07T11:37:26;61.40;;;51.50;;
3811;SDS011;1921;49.368;11.068;2023-05-07T11:40:07;61.83;;;51.80;;
3811;SDS011;1921;49.368;11.068;2023-05-07T11:42:36;61.10;;;51.30;;
3811;SDS011;1921;49.368;11.068;2023-05-07T11:45:05;61.37;;;51.53;;
3811;SDS011;1921;49.368;11.068;2023-05-07T11:47:33;62.37;;;51.80;;
3811;SDS011;1921;49.368;11.068;2023-05-07T11:50:03;61.97;;;51.57;;
3811;SDS011;1921;49.368;11.068;2023-05-07T11:52:33;63.43;;;52.00;;
3811;SDS011;1921;49.368;11.068;2023-05-07T11:54:59;63.60;;;52.93;;
3811;SDS011;1921;49.368;11.068;2023-05-07T11:57:26;61.97;;;51.63;;
3811;SDS011;1921;49.368;11.068;2023-05-07T11:59:54;62.53;;;52.00;;
3811;SDS011;1921;49.368;11.068;2023-05-07T12:02:21;63.08;;;52.17;;
3811;SDS011;1921;49.368;11.068;2023-05-07T12:04:46;63.40;;;52.13;;
3811;SDS011;1921;49.368;11.068;2023-05-07T12:07:13;63.60;;;52.20;;
3811;SDS011;1921;49.368;11.068;2023-05-07T12:09:43;63.67;;;52.28;;
3811;SDS011;1921;49.368;11.068;2023-05-07T12:12:10;64.80;;;52.70;;
3811;SDS011;1921;49.368;11.068;2023-05-07T12:14:40;64.05;;;52.60;;
3811;SDS011;1921;49.368;11.068;2023-05-07T12:17:08;63.65;;;52.47;;
3811;SDS011;1921;49.368;11.068;2023-05-07T12:19:35;64.78;;;53.13;;
3811;SDS011;1921;49.368;11.068;2023-05-07T12:22:03;63.78;;;52.63;;
3811;SDS011;1921;49.368;11.068;2023-05-07T12:24:43;64.05;;;52.85;;
3811;SDS011;1921;49.368;11.068;2023-05-07T12:27:14;63.75;;;52.58;;
3811;SDS011;1921;49.368;11.068;2023-05-07T12:29:45;63.83;;;52.47;;
3811;SDS011;1921;49.368;11.068;2023-05-07T12:32:19;65.60;;;53.03;;
3811;SDS011;1921;49.368;11.068;2023-05-07T12:34:46;63.33;;;52.65;;
3811;SDS011;1921;49.368;11.068;2023-05-07T12:37:15;63.17;;;52.28;;
3811;SDS011;1921;49.368;11.068;2023-05-07T12:39:46;63.67;;;52.35;;
3811;SDS011;1921;49.368;11.068;2023-05-07T12:42:16;63.28;;;52.38;;
3811;SDS011;1921;49.368;11.068;2023-05-07T12:44:50;63.17;;;52.25;;
3811;SDS011;1921;49.368;11.068;2023-05-07T12:47:17;62.63;;;52.10;;
3811;SDS011;1921;49.368;11.068;2023-05-07T12:49:43;61.80;;;51.63;;
3811;SDS011;1921;49.368;11.068;2023-05-07T12:52:11;62.00;;;51.80;;
3811;SDS011;1921;49.368;11.068;2023-05-07T12:54:37;60.23;;;51.13;;
3811;SDS011;1921;49.368;11.068;2023-05-07T12:57:07;59.20;;;50.43;;
3811;SDS011;1921;49.368;11.068;2023-05-07T12:59:38;58.87;;;50.27;;
3811;SDS011;1921;49.368;11.068;2023-05-07T13:02:06;58.27;;;50.30;;
3811;SDS011;1921;49.368;11.068;2023-05-07T13:04:33;59.00;;;50.47;;
3811;SDS011;1921;49.368;11.068;2023-05-07T13:07:00;58.40;;;50.20;;
3811;SDS011;1921;49.368;11.068;2023-05-07T13:09:26;59.60;;;50.70;;
3811;SDS011;1921;49.368;11.068;2023-05-07T13:11:53;58.63;;;50.33;;
3811;SDS011;1921;49.368;11.068;2023-05-07T13:14:20;59.33;;;50.70;;
3811;SDS011;1921;49.368;11.068;2023-05-07T13:16:46;59.07;;;50.60;;
3811;SDS011;1921;49.368;11.068;2023-05-07T13:19:12;58.60;;;50.20;;
3811;SDS011;1921;49.368;11.068;2023-05-07T13:21:38;58.87;;;50.50;;
3811;SDS011;1921;49.368;11.068;2023-05-07T13:24:04;58.57;;;50.30;;
3811;SDS011;1921;49.368;11.068;2023-05-07T13:26:30;59.97;;;51.30;;
3811;SDS011;1921;49.368;11.068;2023-05-07T13:28:56;60.90;;;50.87;;
3811;SDS011;1921;49.368;11.068;2023-05-07T13:31:22;59.90;;;50.63;;
3811;SDS011;1921;49.368;11.068;2023-05-07T13:33:49;59.27;;;50.50;;
3811;SDS011;1921;49.368;11.068;2023-05-07T13:36:15;61.40;;;51.50;;
3811;SDS011;1921;49.368;11.068;2023-05-07T13:38:41;59.80;;;50.73;;
3811;SDS011;1921;49.368;11.068;2023-05-07T13:41:06;60.00;;;50.90;;
3811;SDS011;1921;49.368;11.068;2023-05-07T13:43:32;60.17;;;50.90;;
3811;SDS011;1921;49.368;11.068;2023-05-07T13:45:58;61.17;;;51.40;;
3811;SDS011;1921;49.368;11.068;2023-05-07T13:48:25;60.57;;;51.00;;
3811;SDS011;1921;49.368;11.068;2023-05-07T13:50:51;60.70;;;51.07;;
3811;SDS011;1921;49.368;11.068;2023-05-07T13:53:17;61.03;;;51.15;;
3811;SDS011;1921;49.368;11.068;2023-05-07T13:55:43;60.90;;;51.07;;
3811;SDS011;1921;49.368;11.068;2023-05-07T13:58:10;63.08;;;51.67;;
3811;SDS011;1921;49.368;11.068;2023-05-07T14:00:36;62.17;;;51.47;;
3811;SDS011;1921;49.368;11.068;2023-05-07T14:03:02;63.60;;;52.17;;
3811;SDS011;1921;49.368;11.068;2023-05-07T14:05:30;63.08;;;52.17;;
3811;SDS011;1921;49.368;11.068;2023-05-07T14:07:56;63.45;;;51.97;;
3811;SDS011;1921;49.368;11.068;2023-05-07T14:10:23;63.40;;;52.40;;
3811;SDS011;1921;49.368;11.068;2023-05-07T14:12:49;62.40;;;51.80;;
3811;SDS011;1921;49.368;11.068;2023-05-07T14:15:15;62.42;;;52.05;;
3811;SDS011;1921;49.368;11.068;2023-05-07T14:17:41;62.53;;;52.30;;
3811;SDS011;1921;49.368;11.068;2023-05-07T14:20:10;62.77;;;52.40;;
3811;SDS011;1921;49.368;11.068;2023-05-07T14:22:37;63.00;;;52.20;;
3811;SDS011;1921;49.368;11.068;2023-05-07T14:25:03;61.83;;;51.80;;
3811;SDS011;1921;49.368;11.068;2023-05-07T14:27:29;61.17;;;51.30;;
3811;SDS011;1921;49.368;11.068;2023-05-07T14:29:55;60.53;;;51.23;;
3811;SDS011;1921;49.368;11.068;2023-05-07T14:32:21;59.67;;;50.80;;
3811;SDS011;1921;49.368;11.068;2023-05-07T14:34:47;58.63;;;50.50;;
3811;SDS011;1921;49.368;11.068;2023-05-07T14:37:12;58.17;;;50.03;;
3811;SDS011;1921;49.368;11.068;2023-05-07T14:39:38;58.90;;;50.43;;
3811;SDS011;1921;49.368;11.068;2023-05-07T14:42:04;57.27;;;49.67;;
3811;SDS011;1921;49.368;11.068;2023-05-07T14:44:32;58.50;;;50.43;;
3811;SDS011;1921;49.368;11.068;2023-05-07T14:47:02;57.83;;;50.40;;
3811;SDS011;1921;49.368;11.068;2023-05-07T14:49:27;57.00;;;49.67;;
3811;SDS011;1921;49.368;11.068;2023-05-07T14:51:53;57.80;;;49.97;;
3811;SDS011;1921;49.368;11.068;2023-05-07T14:54:21;57.03;;;49.70;;
3811;SDS011;1921;49.368;11.068;2023-05-07T14:56:47;56.40;;;49.37;;
3811;SDS011;1921;49.368;11.068;2023-05-07T14:59:13;58.57;;;50.37;;
3811;SDS011;1921;49.368;11.068;2023-05-07T15:01:40;56.67;;;49.60;;